createdAt,value
2022-08-23T00:03:33.215Z,14.10
2022-08-23T00:06:00.223Z,13.18
2022-08-23T00:08:27.584Z,12.27
2022-08-23T00:10:54.663Z,11.70
2022-08-23T00:13:22.194Z,12.85
2022-08-23T00:15:49.484Z,12.77
2022-08-23T00:18:16.923Z,12.35
2022-08-23T00:20:44.552Z,11.07
2022-08-23T00:23:11.611Z,11.32
2022-08-23T00:25:38.673Z,10.73
2022-08-23T00:28:05.656Z,11.20
2022-08-23T00:30:41.853Z,9.65
2022-08-23T00:33:09.264Z,10.18
2022-08-23T00:35:36.271Z,9.30
2022-08-23T00:38:31.776Z,9.85
2022-08-23T00:40:53.195Z,10.82
2022-08-23T00:43:46.011Z,10.27
2022-08-23T00:46:34.252Z,10.13
2022-08-23T00:49:06.994Z,11.05
2022-08-23T00:51:52.394Z,11.40
2022-08-23T00:54:24.031Z,9.98
2022-08-23T00:56:52.261Z,10.10
2022-08-23T00:59:19.649Z,9.60
2022-08-23T01:01:47.126Z,10.90
2022-08-23T01:04:14.686Z,10.20
2022-08-23T01:06:44.563Z,8.98
2022-08-23T01:09:19.541Z,8.73
2022-08-23T01:11:49.861Z,9.18
2022-08-23T01:14:41.743Z,9.60
2022-08-23T01:17:19.225Z,9.15
2022-08-23T01:19:54.271Z,8.18
2022-08-23T01:22:36.541Z,9.10
2022-08-23T01:25:09.812Z,8.32
2022-08-23T01:27:38.621Z,9.68
2022-08-23T01:30:09.831Z,8.50
2022-08-23T01:32:58.562Z,8.60
2022-08-23T01:35:35.352Z,8.90
2022-08-23T01:38:02.472Z,9.25
2022-08-23T01:40:30.233Z,8.63
2022-08-23T01:42:57.264Z,8.25
2022-08-23T01:45:24.293Z,7.72
2022-08-23T01:47:51.162Z,8.23
2022-08-23T01:50:18.261Z,9.00
2022-08-23T01:52:47.169Z,8.38
2022-08-23T01:55:14.654Z,8.40
2022-08-23T01:57:44.593Z,8.18
2022-08-23T02:00:14.673Z,8.38
2022-08-23T02:02:42.033Z,8.57
2022-08-23T02:05:09.832Z,8.18
2022-08-23T02:07:37.031Z,7.63
2022-08-23T02:10:07.701Z,8.45
2022-08-23T02:12:34.711Z,9.23
2022-08-23T02:15:01.731Z,8.02
2022-08-23T02:17:28.631Z,8.10
2022-08-23T02:19:56.093Z,8.90
2022-08-23T02:22:23.112Z,7.70
2022-08-23T02:24:50.482Z,7.88
2022-08-23T02:27:17.853Z,9.20
2022-08-23T02:29:46.314Z,8.35
2022-08-23T02:32:15.495Z,8.02
2022-08-23T02:34:43.231Z,7.45
2022-08-23T02:37:13.222Z,8.45
2022-08-23T02:39:41.377Z,9.07
2022-08-23T02:42:11.607Z,7.47
2022-08-23T02:44:39.964Z,7.90
2022-08-23T02:47:12.114Z,8.02
2022-08-23T02:49:39.202Z,8.07
2022-08-23T02:52:07.291Z,8.32
2022-08-23T02:54:35.914Z,8.88
2022-08-23T02:57:03.692Z,8.23
2022-08-23T02:59:30.911Z,7.50
2022-08-23T03:01:57.851Z,8.40
2022-08-23T03:04:25.782Z,6.90
2022-08-23T03:06:53.012Z,6.68
2022-08-23T03:09:19.911Z,7.65
2022-08-23T03:11:48.328Z,7.65
2022-08-23T03:14:15.806Z,7.25
2022-08-23T03:16:42.851Z,7.95
2022-08-23T03:19:10.082Z,7.20
2022-08-23T03:21:37.770Z,7.75
2022-08-23T03:24:09.993Z,7.13
2022-08-23T03:26:37.841Z,7.97
2022-08-23T03:29:05.088Z,9.00
2022-08-23T03:31:32.381Z,8.45
2022-08-23T03:33:59.328Z,8.73
2022-08-23T03:36:28.085Z,9.10
2022-08-23T03:38:55.825Z,8.80
2022-08-23T03:41:23.218Z,8.93
2022-08-23T03:43:50.742Z,8.00
2022-08-23T03:46:23.949Z,9.00
2022-08-23T03:48:58.043Z,10.43
2022-08-23T03:51:25.575Z,9.80
2022-08-23T03:53:53.062Z,10.88
2022-08-23T03:56:29.822Z,9.20
2022-08-23T03:59:00.752Z,11.07
2022-08-23T04:01:28.842Z,9.65
2022-08-23T04:04:00.027Z,11.57
2022-08-23T04:06:28.462Z,12.25
2022-08-23T04:08:56.222Z,12.18
2022-08-23T04:11:24.146Z,13.35
2022-08-23T04:13:51.462Z,12.70
2022-08-23T04:16:20.603Z,13.48
2022-08-23T04:18:47.743Z,11.77
2022-08-23T04:21:22.648Z,13.05
2022-08-23T04:23:49.766Z,13.60
2022-08-23T04:26:16.705Z,12.88
2022-08-23T04:28:43.606Z,12.80
2022-08-23T04:31:10.618Z,12.63
2022-08-23T04:33:40.250Z,11.95
2022-08-23T04:36:08.198Z,13.10
2022-08-23T04:38:35.366Z,14.30
2022-08-23T04:41:21.297Z,13.48
2022-08-23T04:43:48.704Z,11.85
2022-08-23T04:46:16.508Z,13.13
2022-08-23T04:48:45.204Z,12.02
2022-08-23T04:51:12.515Z,12.93
2022-08-23T04:53:40.245Z,14.80
2022-08-23T04:56:09.157Z,12.50
2022-08-23T04:58:38.731Z,12.57
2022-08-23T05:01:09.282Z,12.93
2022-08-23T05:03:37.162Z,13.20
2022-08-23T05:06:05.304Z,12.75
2022-08-23T05:08:32.585Z,14.88
2022-08-23T05:11:06.922Z,13.68
2022-08-23T05:13:34.743Z,13.77
2022-08-23T05:16:02.219Z,17.05
2022-08-23T05:18:29.243Z,14.45
2022-08-23T05:20:56.481Z,17.17
2022-08-23T05:23:31.936Z,14.55
2022-08-23T05:26:00.312Z,14.03
2022-08-23T05:28:34.762Z,15.93
2022-08-23T05:31:11.404Z,14.95
2022-08-23T05:33:40.803Z,14.70
2022-08-23T05:36:09.224Z,14.27
2022-08-23T05:38:36.897Z,15.25
2022-08-23T05:41:05.287Z,14.55
2022-08-23T05:43:52.458Z,14.02
2022-08-23T05:46:21.766Z,14.77
2022-08-23T05:48:53.635Z,15.73
2022-08-23T05:51:26.716Z,15.02
2022-08-23T05:53:55.252Z,16.60
2022-08-23T05:56:27.219Z,17.80
2022-08-23T05:58:59.937Z,15.77
2022-08-23T06:01:29.608Z,15.73
2022-08-23T06:03:58.635Z,15.52
2022-08-23T06:06:37.109Z,16.35
2022-08-23T06:09:06.278Z,15.75
2022-08-23T06:11:33.327Z,17.15
2022-08-23T06:14:03.500Z,15.60
2022-08-23T06:16:34.560Z,16.40
2022-08-23T06:19:02.794Z,18.13
2022-08-23T06:21:30.964Z,15.05
2022-08-23T06:23:57.957Z,16.05
2022-08-23T06:26:33.855Z,16.38
2022-08-23T06:29:03.690Z,15.50
2022-08-23T06:31:49.812Z,14.45
2022-08-23T06:34:23.036Z,15.57
2022-08-23T06:36:53.942Z,14.65
2022-08-23T06:39:23.143Z,15.50
2022-08-23T06:41:51.168Z,13.10
2022-08-23T06:44:19.495Z,13.85
2022-08-23T06:46:48.942Z,13.80
2022-08-23T06:49:16.644Z,14.07
2022-08-23T06:51:52.364Z,13.27
2022-08-23T06:54:22.255Z,13.87
2022-08-23T06:56:50.056Z,12.30
2022-08-23T06:59:17.326Z,13.00
2022-08-23T07:01:49.712Z,14.48
2022-08-23T07:04:19.858Z,13.85
2022-08-23T07:06:46.945Z,16.10
2022-08-23T07:09:14.047Z,14.70
2022-08-23T07:11:41.896Z,13.50
2022-08-23T07:14:13.332Z,13.93
2022-08-23T07:16:46.108Z,12.98
2022-08-23T07:19:13.046Z,12.27
2022-08-23T07:21:40.143Z,13.70
2022-08-23T07:24:07.375Z,12.55
2022-08-23T07:26:34.642Z,14.63
2022-08-23T07:29:04.465Z,12.73
2022-08-23T07:31:33.688Z,12.55
2022-08-23T07:34:03.875Z,12.00
2022-08-23T07:36:32.448Z,11.55
2022-08-23T07:38:59.805Z,11.45
2022-08-23T07:41:31.095Z,12.38
2022-08-23T07:44:02.830Z,10.75
2022-08-23T07:46:31.323Z,11.23
2022-08-23T07:49:03.527Z,11.50
2022-08-23T07:51:32.646Z,11.02
2022-08-23T07:54:05.385Z,10.45
2022-08-23T07:56:32.460Z,10.70
2022-08-23T07:58:59.412Z,11.65
2022-08-23T08:01:28.161Z,11.98
2022-08-23T08:03:57.555Z,9.43
2022-08-23T08:06:31.867Z,10.77
2022-08-23T08:08:59.926Z,8.77
2022-08-23T08:11:34.548Z,8.02
2022-08-23T08:14:07.446Z,8.18
2022-08-23T08:16:41.049Z,6.85
2022-08-23T08:19:11.985Z,7.03
2022-08-23T08:21:42.692Z,6.35
2022-08-23T08:24:13.004Z,6.47
2022-08-23T08:26:41.736Z,6.63
2022-08-23T08:29:13.085Z,6.97
2022-08-23T08:31:42.946Z,6.22
2022-08-23T08:34:10.543Z,5.60
2022-08-23T08:36:39.129Z,7.13
2022-08-23T08:39:10.358Z,5.15
2022-08-23T08:42:04.320Z,5.07
2022-08-23T08:44:38.063Z,5.95
2022-08-23T08:47:14.848Z,4.90
2022-08-23T08:49:55.071Z,5.50
2022-08-23T08:52:32.204Z,6.97
2022-08-23T08:55:24.587Z,4.07
2022-08-23T08:57:55.396Z,4.30
2022-08-23T09:00:27.449Z,3.80
2022-08-23T09:02:56.685Z,3.72
2022-08-23T09:05:27.955Z,4.47
2022-08-23T09:08:13.726Z,3.95
2022-08-23T09:11:06.648Z,4.32
2022-08-23T09:13:53.975Z,4.00
2022-08-23T09:16:39.040Z,4.93
2022-08-23T09:19:06.598Z,5.38
2022-08-23T09:21:44.425Z,4.60
2022-08-23T09:24:11.876Z,4.75
2022-08-23T09:26:39.027Z,4.22
2022-08-23T09:29:28.960Z,3.85
2022-08-23T09:32:02.743Z,3.88
2022-08-23T09:34:32.976Z,4.25
2022-08-23T09:37:11.655Z,4.03
2022-08-23T09:39:42.032Z,3.88
2022-08-23T09:42:33.395Z,3.97
2022-08-23T09:45:01.426Z,4.47
2022-08-23T09:47:44.336Z,4.85
2022-08-23T09:50:29.917Z,3.85
2022-08-23T09:53:06.978Z,4.30
2022-08-23T09:55:39.695Z,4.25
2022-08-23T09:58:19.050Z,4.28
2022-08-23T10:01:01.340Z,4.95
2022-08-23T10:03:29.934Z,5.60
2022-08-23T10:06:01.066Z,5.85
2022-08-23T10:08:33.796Z,5.88
2022-08-23T10:11:24.249Z,6.50
2022-08-23T10:13:52.893Z,6.07
2022-08-23T10:16:49.105Z,6.50
2022-08-23T10:20:02.631Z,6.05
2022-08-23T10:22:44.766Z,6.38
2022-08-23T10:25:27.376Z,6.82
2022-08-23T10:28:39.553Z,6.53
2022-08-23T10:31:36.390Z,6.85
2022-08-23T10:34:13.376Z,8.23
2022-08-23T10:37:06.675Z,8.35
2022-08-23T10:39:34.097Z,7.97
2022-08-23T10:42:20.242Z,8.88
2022-08-23T10:44:59.425Z,8.00
2022-08-23T10:47:51.007Z,8.40
2022-08-23T10:50:20.925Z,7.40
2022-08-23T10:53:09.205Z,8.95
2022-08-23T10:56:05.435Z,6.95
2022-08-23T10:58:52.637Z,6.60
2022-08-23T11:01:24.287Z,7.50
2022-08-23T11:04:08.575Z,8.07
2022-08-23T11:06:35.758Z,7.63
2022-08-23T11:09:19.465Z,6.57
2022-08-23T11:12:05.658Z,7.50
2022-08-23T11:14:58.365Z,6.57
2022-08-23T11:17:28.346Z,6.78
2022-08-23T11:19:59.555Z,7.20
2022-08-23T11:22:34.306Z,6.97
2022-08-23T11:25:27.148Z,6.82
2022-08-23T11:28:30.421Z,6.57
2022-08-23T11:31:12.882Z,6.55
2022-08-23T11:33:45.005Z,6.57
2022-08-23T11:36:22.007Z,6.60
2022-08-23T11:38:49.283Z,6.10
2022-08-23T11:41:19.447Z,9.68
2022-08-23T11:43:50.238Z,6.32
2022-08-23T11:46:17.235Z,5.90
2022-08-23T11:48:54.207Z,4.80
2022-08-23T11:51:40.533Z,5.90
2022-08-23T11:54:24.885Z,5.28
2022-08-23T11:59:38.499Z,4.38
2022-08-23T12:03:02.242Z,4.53
2022-08-23T12:06:01.436Z,4.00
2022-08-23T12:08:47.896Z,4.35
2022-08-23T12:11:17.407Z,5.95
2022-08-23T12:13:49.717Z,3.83
2022-08-23T12:16:17.620Z,3.92
2022-08-23T12:18:48.477Z,3.78
2022-08-23T12:21:31.667Z,4.57
2022-08-23T12:24:17.039Z,5.95
2022-08-23T12:27:07.424Z,7.43
2022-08-23T12:29:37.126Z,8.93
2022-08-23T12:32:17.631Z,10.55
2022-08-23T12:35:03.755Z,11.20
2022-08-23T12:38:04.151Z,12.43
2022-08-23T12:40:36.835Z,14.00
2022-08-23T12:43:16.777Z,13.68
2022-08-23T12:45:53.535Z,14.00
2022-08-23T12:48:24.754Z,14.02
2022-08-23T12:50:59.334Z,15.52
2022-08-23T12:53:27.891Z,14.90
2022-08-23T12:56:02.620Z,15.52
2022-08-23T12:58:33.775Z,15.45
2022-08-23T13:01:04.863Z,16.15
2022-08-23T13:03:44.576Z,16.67
2022-08-23T13:06:15.274Z,16.45
2022-08-23T13:09:23.254Z,16.20
2022-08-23T13:17:19.425Z,16.00
2022-08-23T13:19:59.265Z,15.15
2022-08-23T13:22:26.646Z,14.10
2022-08-23T13:25:28.130Z,13.82
2022-08-23T13:27:55.564Z,14.65
2022-08-23T13:30:31.648Z,13.20
2022-08-23T13:33:07.891Z,13.75
2022-08-23T13:35:47.235Z,14.30
2022-08-23T13:38:31.142Z,14.73
2022-08-23T13:41:06.509Z,13.52
2022-08-23T13:43:38.036Z,12.07
2022-08-23T13:46:27.081Z,13.73
2022-08-23T13:48:54.228Z,14.18
2022-08-23T13:51:32.088Z,13.43
2022-08-23T13:54:01.254Z,14.95
2022-08-23T13:56:30.076Z,14.23
2022-08-23T13:59:21.570Z,15.85
2022-08-23T14:01:48.822Z,14.40
2022-08-23T14:04:16.163Z,14.68
2022-08-23T14:06:43.263Z,14.38
2022-08-23T14:09:16.638Z,14.57
2022-08-23T14:11:44.139Z,15.27
2022-08-23T14:14:12.916Z,16.67
2022-08-23T14:16:41.268Z,16.52
2022-08-23T14:19:55.333Z,16.10
2022-08-23T14:21:59.594Z,16.23
2022-08-23T14:24:27.423Z,17.23
2022-08-23T14:26:55.953Z,16.27
2022-08-23T14:29:24.614Z,17.63
2022-08-23T14:31:52.603Z,16.77
2022-08-23T14:34:20.740Z,18.70
2022-08-23T14:39:35.084Z,18.05
2022-08-23T14:42:03.024Z,18.33
2022-08-23T14:44:35.926Z,18.55
2022-08-23T14:47:05.342Z,20.08
2022-08-23T14:49:32.852Z,19.55
2022-08-23T14:51:59.882Z,19.33
2022-08-23T14:54:26.832Z,18.65
2022-08-23T14:56:54.451Z,18.33
2022-08-23T14:59:22.022Z,19.70
2022-08-23T15:01:52.791Z,18.65
2022-08-23T15:04:23.384Z,19.45
2022-08-23T15:07:16.302Z,17.40
2022-08-23T15:09:38.479Z,18.45
2022-08-23T15:14:53.184Z,17.73
2022-08-23T15:17:20.153Z,19.00
2022-08-23T15:19:47.299Z,17.25
2022-08-23T15:22:21.615Z,17.83
2022-08-23T15:24:49.676Z,17.58
2022-08-23T15:27:18.803Z,18.88
2022-08-23T15:29:45.977Z,18.60
2022-08-23T15:32:13.247Z,18.05
2022-08-23T15:34:46.223Z,17.58
2022-08-23T15:37:14.465Z,17.20
2022-08-23T15:39:42.705Z,17.38
2022-08-23T15:42:09.880Z,16.98
2022-08-23T15:44:36.997Z,17.15
2022-08-23T15:47:06.134Z,18.13
2022-08-23T15:49:36.563Z,17.35
2022-08-23T15:52:04.586Z,16.17
2022-08-23T15:54:31.793Z,16.92
2022-08-23T15:56:58.764Z,18.58
2022-08-23T15:59:44.532Z,16.17
2022-08-23T16:02:12.239Z,17.40
2022-08-23T16:04:39.643Z,16.40
2022-08-23T16:07:09.243Z,16.75
2022-08-23T16:09:36.902Z,17.85
2022-08-23T16:12:05.306Z,17.42
2022-08-23T16:14:32.775Z,18.50
2022-08-23T16:17:00.613Z,18.58
2022-08-23T16:19:28.787Z,16.10
2022-08-23T16:21:57.545Z,17.30
2022-08-23T16:24:25.018Z,14.98
2022-08-23T16:26:52.459Z,14.80
2022-08-23T16:29:20.997Z,13.70
2022-08-23T16:31:48.455Z,13.15
2022-08-23T16:34:19.174Z,14.38
2022-08-23T16:36:56.823Z,13.38
2022-08-23T16:39:25.263Z,12.98
2022-08-23T16:41:52.254Z,12.63
2022-08-23T16:44:19.643Z,13.27
2022-08-23T16:46:47.086Z,12.55
2022-08-23T16:49:18.943Z,11.77
2022-08-23T16:51:46.796Z,11.38
2022-08-23T16:54:14.174Z,11.75
2022-08-23T16:56:42.094Z,12.82
2022-08-23T16:59:12.164Z,10.77
2022-08-23T17:01:46.794Z,11.75
2022-08-23T17:04:14.085Z,11.70
2022-08-23T17:06:41.439Z,11.52
2022-08-23T17:09:08.546Z,10.38
2022-08-23T17:11:36.971Z,11.13
2022-08-23T17:14:04.915Z,11.50
2022-08-23T17:16:33.093Z,11.05
2022-08-23T17:19:00.291Z,12.48
2022-08-23T17:21:27.473Z,11.75
2022-08-23T17:23:54.677Z,11.82
2022-08-23T17:26:22.425Z,12.35
2022-08-23T17:28:49.423Z,14.68
2022-08-23T17:31:18.185Z,11.75
2022-08-23T17:33:46.458Z,12.38
2022-08-23T17:36:31.342Z,10.95
2022-08-23T17:38:59.006Z,10.88
2022-08-23T17:41:27.438Z,11.00
2022-08-23T17:43:55.479Z,12.10
2022-08-23T17:46:22.681Z,13.18
2022-08-23T17:48:49.863Z,12.32
2022-08-23T17:51:17.489Z,13.93
2022-08-23T17:53:44.663Z,14.20
2022-08-23T17:56:12.310Z,15.82
2022-08-23T17:58:39.654Z,14.10
2022-08-23T18:01:07.239Z,13.27
2022-08-23T18:03:34.353Z,14.20
2022-08-23T18:06:01.792Z,14.10
2022-08-23T18:08:44.897Z,14.23
2022-08-23T18:11:12.205Z,13.52
2022-08-23T18:13:39.555Z,14.52
2022-08-23T18:16:07.512Z,13.57
2022-08-23T18:18:38.173Z,15.27
2022-08-23T18:21:08.753Z,14.85
2022-08-23T18:23:35.973Z,14.00
2022-08-23T18:26:09.346Z,12.43
2022-08-23T18:28:36.223Z,13.95
2022-08-23T18:31:03.951Z,14.65
2022-08-23T18:33:46.954Z,13.60
2022-08-23T18:36:15.759Z,13.52
2022-08-23T18:38:42.663Z,13.85
2022-08-23T18:41:09.645Z,13.77
2022-08-23T18:43:37.631Z,13.32
2022-08-23T18:46:05.921Z,14.00
2022-08-23T18:48:33.791Z,13.23
2022-08-23T18:51:01.142Z,13.60
2022-08-23T18:53:28.363Z,12.85
2022-08-23T18:55:55.363Z,13.38
2022-08-23T18:58:23.183Z,13.45
2022-08-23T19:00:52.429Z,12.07
2022-08-23T19:03:19.663Z,13.10
2022-08-23T19:05:47.204Z,14.45
2022-08-23T19:08:15.064Z,13.75
2022-08-23T19:10:43.465Z,14.68
2022-08-23T19:13:11.724Z,16.33
2022-08-23T19:15:40.592Z,15.25
2022-08-23T19:18:08.449Z,15.60
2022-08-23T19:23:21.756Z,14.45
2022-08-23T19:28:53.235Z,14.75
2022-08-23T19:34:10.708Z,14.18
2022-08-23T19:37:00.836Z,12.75
2022-08-23T19:39:37.155Z,14.88
2022-08-23T19:49:44.245Z,13.30
2022-08-23T19:52:12.055Z,13.02
2022-08-23T19:54:39.027Z,13.73
2022-08-23T19:57:08.337Z,13.23
2022-08-23T19:59:39.286Z,12.85
2022-08-23T20:02:08.803Z,13.88
2022-08-23T20:04:36.855Z,12.95
2022-08-23T20:07:04.997Z,13.40
2022-08-23T20:09:32.807Z,13.48
2022-08-23T20:12:01.158Z,14.98
2022-08-23T20:14:31.187Z,14.05
2022-08-23T20:16:58.095Z,14.70
2022-08-23T20:19:25.675Z,16.10
2022-08-23T20:22:15.694Z,14.20
2022-08-23T20:24:51.305Z,14.70
2022-08-23T20:27:28.428Z,14.55
2022-08-23T20:29:59.123Z,13.73
2022-08-23T20:32:26.757Z,13.98
2022-08-23T20:34:53.749Z,13.63
2022-08-23T20:37:21.756Z,13.73
2022-08-23T20:39:48.713Z,15.57
2022-08-23T20:42:15.827Z,20.08
2022-08-23T20:44:42.747Z,16.92
2022-08-23T20:47:09.746Z,16.95
2022-08-23T20:49:36.708Z,17.15
2022-08-23T20:52:03.926Z,17.52
2022-08-23T20:54:30.937Z,15.95
2022-08-23T20:56:57.857Z,17.05
2022-08-23T20:59:24.689Z,17.88
2022-08-23T21:01:51.764Z,16.55
2022-08-23T21:04:20.007Z,16.88
2022-08-23T21:06:53.633Z,16.13
2022-08-23T21:09:29.518Z,15.85
2022-08-23T21:11:56.819Z,17.20
2022-08-23T21:14:23.952Z,17.42
2022-08-23T21:16:51.143Z,17.27
2022-08-23T21:19:19.202Z,17.02
2022-08-23T21:21:46.391Z,16.38
2022-08-23T21:24:16.373Z,17.42
2022-08-23T21:26:43.430Z,17.65
2022-08-23T21:29:11.298Z,16.98
2022-08-23T21:31:39.115Z,16.50
2022-08-23T21:34:07.635Z,17.05
2022-08-23T21:36:35.436Z,16.77
2022-08-23T21:39:02.462Z,17.10
2022-08-23T21:41:31.152Z,16.67
2022-08-23T21:43:58.340Z,16.70
2022-08-23T21:46:25.325Z,15.57
2022-08-23T21:48:52.343Z,17.15
2022-08-23T21:51:19.419Z,16.65
2022-08-23T21:53:47.582Z,17.63
2022-08-23T21:56:14.781Z,15.55
2022-08-23T21:59:00.322Z,16.73
2022-08-23T22:01:27.933Z,17.02
2022-08-23T22:03:57.124Z,16.30
2022-08-23T22:06:24.976Z,16.65
2022-08-23T22:08:51.807Z,18.95
2022-08-23T22:11:18.772Z,27.13
2022-08-23T22:13:45.643Z,25.23
2022-08-23T22:16:12.710Z,23.92
2022-08-23T22:18:39.663Z,20.42
2022-08-23T22:21:07.215Z,18.75
2022-08-23T22:23:36.357Z,18.10
2022-08-23T22:26:06.999Z,18.38
2022-08-23T22:28:36.209Z,18.38
2022-08-23T22:31:05.802Z,18.33
2022-08-23T22:33:33.412Z,18.30
2022-08-23T22:36:09.462Z,19.33
2022-08-23T22:38:37.067Z,20.75
2022-08-23T22:41:04.536Z,18.85
2022-08-23T22:43:31.576Z,17.90
2022-08-23T22:46:00.750Z,17.83
2022-08-23T22:48:30.606Z,17.17
2022-08-23T22:51:12.684Z,16.77
2022-08-23T22:53:44.533Z,19.27
2022-08-23T22:56:34.654Z,20.60
2022-08-23T22:59:01.646Z,16.92
2022-08-23T23:01:35.808Z,18.90
2022-08-23T23:04:08.146Z,19.02
2022-08-23T23:06:35.605Z,17.48
2022-08-23T23:09:03.815Z,19.23
2022-08-23T23:11:30.785Z,16.95
2022-08-23T23:13:58.359Z,17.48
2022-08-23T23:16:28.492Z,17.15
2022-08-23T23:19:15.020Z,17.13
2022-08-23T23:21:47.910Z,16.48
2022-08-23T23:24:18.339Z,16.73
2022-08-23T23:26:47.568Z,19.45
2022-08-23T23:29:15.153Z,16.85
2022-08-23T23:31:42.352Z,16.05
2022-08-23T23:34:12.938Z,17.17
2022-08-23T23:36:44.682Z,17.50
2022-08-23T23:39:13.534Z,16.92
2022-08-23T23:41:40.979Z,16.55
2022-08-23T23:44:08.170Z,16.75
2022-08-23T23:46:35.281Z,16.42
2022-08-23T23:49:02.343Z,17.27
2022-08-23T23:51:31.881Z,19.77
2022-08-23T23:54:00.971Z,19.95
2022-08-23T23:56:29.687Z,19.05
2022-08-23T23:58:58.722Z,21.00
